createdAt,value
2022-10-06T00:02:19.169Z,99053.88
2022-10-06T00:04:46.663Z,99061.75
2022-10-06T00:07:14.152Z,99071.84
2022-10-06T00:09:41.462Z,99074.53
2022-10-06T00:12:09.725Z,99083.25
2022-10-06T00:14:36.805Z,99082.31
2022-10-06T00:17:03.602Z,99090.53
2022-10-06T00:19:29.988Z,99090.94
2022-10-06T00:21:56.392Z,99084.25
2022-10-06T00:24:22.822Z,99097.34
2022-10-06T00:26:49.266Z,99094.81
2022-10-06T00:29:15.843Z,99104.03
2022-10-06T00:31:42.226Z,99114.81
2022-10-06T00:34:08.608Z,99113.50
2022-10-06T00:36:35.224Z,99108.44
2022-10-06T00:39:01.688Z,99112.66
2022-10-06T00:41:28.099Z,99109.13
2022-10-06T00:43:58.961Z,99115.50
2022-10-06T00:46:47.454Z,99128.63
2022-10-06T00:49:19.012Z,99127.59
2022-10-06T00:52:09.661Z,99119.19
2022-10-06T00:54:36.687Z,99125.41
2022-10-06T00:57:05.071Z,99126.25
2022-10-06T00:59:32.289Z,99137.66
2022-10-06T01:02:04.658Z,99138.50
2022-10-06T01:04:36.852Z,99143.03
2022-10-06T01:07:03.931Z,99145.22
2022-10-06T01:09:31.506Z,99149.22
2022-10-06T01:12:01.349Z,99157.66
2022-10-06T01:14:28.486Z,99157.13
2022-10-06T01:17:02.004Z,99163.00
2022-10-06T01:19:44.530Z,99183.50
2022-10-06T01:22:14.087Z,99190.38
2022-10-06T01:24:40.838Z,99223.34
2022-10-06T01:27:09.644Z,99225.34
2022-10-06T01:29:36.801Z,99227.41
2022-10-06T01:32:03.614Z,99234.81
2022-10-06T01:34:30.114Z,99243.03
2022-10-06T01:36:56.476Z,99233.47
2022-10-06T01:39:22.826Z,99247.69
2022-10-06T01:41:49.243Z,99252.56
2022-10-06T01:44:15.716Z,99256.41
2022-10-06T01:46:42.303Z,99260.56
2022-10-06T01:49:08.695Z,99261.03
2022-10-06T01:51:35.128Z,99280.44
2022-10-06T01:54:01.580Z,99272.81
2022-10-06T01:56:27.973Z,99277.81
2022-10-06T01:58:54.340Z,99282.72
2022-10-06T02:01:20.791Z,99272.97
2022-10-06T02:03:47.352Z,99272.78
2022-10-06T02:06:13.846Z,99279.63
2022-10-06T02:08:40.375Z,99273.44
2022-10-06T02:11:11.950Z,99271.97
2022-10-06T02:13:38.723Z,99277.63
2022-10-06T02:16:06.813Z,99283.81
2022-10-06T02:18:33.996Z,99298.00
2022-10-06T02:21:01.524Z,99293.06
2022-10-06T02:23:29.213Z,99290.22
2022-10-06T02:26:04.633Z,99298.59
2022-10-06T02:28:32.221Z,99318.69
2022-10-06T02:31:07.227Z,99317.88
2022-10-06T02:33:34.710Z,99321.56
2022-10-06T02:36:01.465Z,99318.59
2022-10-06T02:38:29.173Z,99335.22
2022-10-06T02:40:55.849Z,99327.22
2022-10-06T02:43:22.339Z,99319.72
2022-10-06T02:46:03.018Z,99328.94
2022-10-06T02:48:30.943Z,99336.28
2022-10-06T02:50:58.617Z,99337.88
2022-10-06T02:53:25.874Z,99326.72
2022-10-06T02:56:03.868Z,99339.72
2022-10-06T02:58:30.936Z,99347.78
2022-10-06T03:01:02.931Z,99335.06
2022-10-06T03:03:30.709Z,99340.19
2022-10-06T03:06:21.653Z,99349.31
2022-10-06T03:08:56.833Z,99364.03
2022-10-06T03:11:31.483Z,99353.81
2022-10-06T03:13:58.518Z,99356.81
2022-10-06T03:16:28.393Z,99362.78
2022-10-06T03:18:55.809Z,99377.88
2022-10-06T03:21:24.513Z,99385.25
2022-10-06T03:23:53.374Z,99374.31
2022-10-06T03:26:23.298Z,99385.53
2022-10-06T03:28:49.786Z,99379.88
2022-10-06T03:31:17.891Z,99379.09
2022-10-06T03:33:44.399Z,99388.38
2022-10-06T03:36:16.148Z,99381.00
2022-10-06T03:38:42.954Z,99392.84
2022-10-06T03:41:13.641Z,99401.56
2022-10-06T03:43:42.163Z,99405.81
2022-10-06T03:46:11.241Z,99413.09
2022-10-06T03:48:37.992Z,99412.28
2022-10-06T03:51:13.455Z,99410.00
2022-10-06T03:53:43.117Z,99414.38
2022-10-06T03:56:22.055Z,99415.00
2022-10-06T03:59:12.727Z,99421.38
2022-10-06T04:01:42.700Z,99427.72
2022-10-06T04:04:09.785Z,99424.38
2022-10-06T04:06:38.148Z,99439.50
2022-10-06T04:09:09.314Z,99450.56
2022-10-06T04:11:40.797Z,99440.16
2022-10-06T04:14:09.747Z,99457.06
2022-10-06T04:16:41.117Z,99444.94
2022-10-06T04:19:10.587Z,99447.53
2022-10-06T04:21:39.003Z,99464.50
2022-10-06T04:24:06.741Z,99482.28
2022-10-06T04:26:37.534Z,99473.84
2022-10-06T04:29:04.489Z,99487.19
2022-10-06T04:31:33.456Z,99489.19
2022-10-06T04:34:01.048Z,99485.34
2022-10-06T04:36:31.335Z,99494.94
2022-10-06T04:39:00.450Z,99498.03
2022-10-06T04:41:32.425Z,99508.34
2022-10-06T04:43:59.336Z,99513.69
2022-10-06T04:46:44.203Z,99503.72
2022-10-06T04:49:17.909Z,99508.78
2022-10-06T04:51:45.518Z,99508.41
2022-10-06T04:54:12.013Z,99512.06
2022-10-06T04:56:38.491Z,99521.34
2022-10-06T04:59:04.958Z,99530.88
2022-10-06T05:01:34.793Z,99537.22
2022-10-06T05:04:03.471Z,99544.81
2022-10-06T05:06:32.941Z,99544.63
2022-10-06T05:09:02.370Z,99557.34
2022-10-06T05:11:28.933Z,99554.91
2022-10-06T05:13:56.905Z,99563.19
2022-10-06T05:16:25.580Z,99565.47
2022-10-06T05:18:52.333Z,99566.69
2022-10-06T05:21:23.969Z,99571.91
2022-10-06T05:23:50.806Z,99578.69
2022-10-06T05:26:22.868Z,99584.44
2022-10-06T05:28:49.805Z,99591.31
2022-10-06T05:31:19.089Z,99598.19
2022-10-06T05:33:45.825Z,99600.97
2022-10-06T05:36:15.788Z,99608.91
2022-10-06T05:38:43.960Z,99613.81
2022-10-06T05:41:11.754Z,99614.91
2022-10-06T05:43:39.097Z,99627.19
2022-10-06T05:46:20.801Z,99627.94
2022-10-06T05:48:49.107Z,99627.63
2022-10-06T05:51:17.027Z,99638.00
2022-10-06T05:53:44.249Z,99645.09
2022-10-06T05:56:21.765Z,99639.75
2022-10-06T05:58:50.212Z,99640.97
2022-10-06T06:01:19.564Z,99643.47
2022-10-06T06:03:51.104Z,99651.88
2022-10-06T06:06:20.815Z,99653.38
2022-10-06T06:08:51.429Z,99655.94
2022-10-06T06:11:18.175Z,99652.31
2022-10-06T06:13:44.537Z,99660.94
2022-10-06T06:16:15.487Z,99666.94
2022-10-06T06:18:42.179Z,99679.38
2022-10-06T06:21:10.493Z,99676.88
2022-10-06T06:23:42.634Z,99676.66
2022-10-06T06:26:13.268Z,99688.03
2022-10-06T06:28:42.587Z,99695.69
2022-10-06T06:31:19.056Z,99701.38
2022-10-06T06:33:47.546Z,99702.19
2022-10-06T06:36:20.892Z,99704.88
2022-10-06T06:38:54.516Z,99710.16
2022-10-06T06:41:26.569Z,99720.00
2022-10-06T06:43:54.100Z,99725.19
2022-10-06T06:46:24.841Z,99742.75
2022-10-06T06:48:52.463Z,99738.09
2022-10-06T06:51:23.899Z,99735.03
2022-10-06T06:53:51.494Z,99741.00
2022-10-06T06:56:18.479Z,99748.28
2022-10-06T06:58:49.026Z,99762.47
2022-10-06T07:01:18.449Z,99752.97
2022-10-06T07:03:58.105Z,99760.28
2022-10-06T07:06:28.823Z,99770.56
2022-10-06T07:08:58.018Z,99767.06
2022-10-06T07:11:32.929Z,99769.13
2022-10-06T07:14:02.119Z,99770.00
2022-10-06T07:16:49.215Z,99768.81
2022-10-06T07:19:35.982Z,99778.97
2022-10-06T07:22:43.102Z,99777.69
2022-10-06T07:25:25.428Z,99786.06
2022-10-06T07:27:52.502Z,99784.97
2022-10-06T07:30:25.573Z,99783.97
2022-10-06T07:32:53.130Z,99790.22
2022-10-06T07:35:20.980Z,99783.94
2022-10-06T07:37:48.976Z,99794.47
2022-10-06T07:40:16.045Z,99791.16
2022-10-06T07:42:49.142Z,99802.53
2022-10-06T07:45:39.179Z,99809.34
2022-10-06T07:48:11.281Z,99819.31
2022-10-06T07:50:38.554Z,99829.84
2022-10-06T07:53:08.594Z,99826.91
2022-10-06T07:55:40.009Z,99820.28
2022-10-06T07:58:14.855Z,99830.59
2022-10-06T08:00:42.745Z,99822.53
2022-10-06T08:03:11.163Z,99826.66
2022-10-06T08:05:39.081Z,99822.38
2022-10-06T08:08:06.546Z,99826.47
2022-10-06T08:10:32.933Z,99831.88
2022-10-06T08:12:59.377Z,99831.75
2022-10-06T08:15:25.809Z,99837.72
2022-10-06T08:17:54.100Z,99855.84
2022-10-06T08:20:20.547Z,99862.22
2022-10-06T08:22:47.742Z,99863.41
2022-10-06T08:25:14.668Z,99857.94
2022-10-06T08:27:43.988Z,99866.00
2022-10-06T08:30:11.343Z,99864.16
2022-10-06T08:32:37.884Z,99865.59
2022-10-06T08:35:04.625Z,99877.00
2022-10-06T08:37:30.983Z,99874.72
2022-10-06T08:39:57.564Z,99880.75
2022-10-06T08:42:48.435Z,99882.16
2022-10-06T08:45:28.783Z,99879.44
2022-10-06T08:48:09.699Z,99876.25
2022-10-06T08:51:03.208Z,99880.59
2022-10-06T08:53:46.704Z,99885.44
2022-10-06T08:56:19.878Z,99889.31
2022-10-06T08:58:46.227Z,99889.09
2022-10-06T09:01:17.343Z,99890.84
2022-10-06T09:03:48.405Z,99897.09
2022-10-06T09:06:38.641Z,99905.78
2022-10-06T09:09:23.000Z,99899.84
2022-10-06T09:12:02.734Z,99903.94
2022-10-06T09:14:48.059Z,99911.28
2022-10-06T09:17:26.512Z,99913.84
2022-10-06T09:20:00.465Z,99911.72
2022-10-06T09:22:31.121Z,99916.22
2022-10-06T09:25:08.479Z,99906.84
2022-10-06T09:27:37.764Z,99919.31
2022-10-06T09:30:04.820Z,99919.94
2022-10-06T09:32:33.170Z,99919.13
2022-10-06T09:34:59.887Z,99915.84
2022-10-06T09:37:27.267Z,99920.25
2022-10-06T09:39:54.004Z,99915.59
2022-10-06T09:42:22.658Z,99923.84
2022-10-06T09:45:23.494Z,99924.78
2022-10-06T09:47:50.217Z,99924.19
2022-10-06T09:50:27.663Z,99920.72
2022-10-06T09:53:09.082Z,99922.97
2022-10-06T09:55:38.443Z,99928.28
2022-10-06T09:58:30.402Z,99925.16
2022-10-06T10:01:02.816Z,99933.19
2022-10-06T10:04:08.936Z,99928.78
2022-10-06T10:06:40.142Z,99914.69
2022-10-06T10:09:22.693Z,99920.59
2022-10-06T10:12:32.751Z,99926.13
2022-10-06T10:15:34.128Z,99927.75
2022-10-06T10:18:03.137Z,99922.91
2022-10-06T10:20:39.053Z,99928.50
2022-10-06T10:23:31.144Z,99933.91
2022-10-06T10:26:17.422Z,99924.50
2022-10-06T10:29:08.578Z,99926.78
2022-10-06T10:31:58.710Z,99930.78
2022-10-06T10:34:35.515Z,99929.84
2022-10-06T10:37:08.056Z,99925.91
2022-10-06T10:39:46.232Z,99926.78
2022-10-06T10:42:28.127Z,99924.69
2022-10-06T10:45:01.536Z,99922.69
2022-10-06T10:47:34.172Z,99931.53
2022-10-06T10:50:11.279Z,99924.44
2022-10-06T10:52:42.785Z,99928.88
2022-10-06T10:55:34.215Z,99926.44
2022-10-06T10:58:27.885Z,99919.47
2022-10-06T11:01:00.335Z,99920.44
2022-10-06T11:03:26.811Z,99928.34
2022-10-06T11:06:02.632Z,99927.63
2022-10-06T11:08:38.386Z,99923.31
2022-10-06T11:11:13.102Z,99927.16
2022-10-06T11:13:45.784Z,99931.53
2022-10-06T11:16:33.481Z,99925.31
2022-10-06T11:19:25.470Z,99915.69
2022-10-06T11:22:03.978Z,99926.16
2022-10-06T11:24:39.235Z,99925.28
2022-10-06T11:27:27.445Z,99929.47
2022-10-06T11:29:59.472Z,99935.09
2022-10-06T11:32:36.206Z,99937.69
2022-10-06T11:35:06.947Z,99933.44
2022-10-06T11:37:46.796Z,99923.34
2022-10-06T11:40:31.732Z,99922.53
2022-10-06T11:43:43.164Z,99914.97
2022-10-06T11:46:12.684Z,99916.53
2022-10-06T11:48:39.594Z,99915.09
2022-10-06T11:51:24.674Z,99905.72
2022-10-06T11:53:52.370Z,99910.78
2022-10-06T11:56:18.738Z,99912.09
2022-10-06T11:58:51.382Z,99910.63
2022-10-06T12:01:39.143Z,99911.44
2022-10-06T12:04:08.416Z,99897.97
2022-10-06T12:06:46.979Z,99893.00
2022-10-06T12:09:25.905Z,99894.72
2022-10-06T12:11:54.065Z,99887.53
2022-10-06T12:16:31.998Z,99886.09
2022-10-06T12:17:38.392Z,99886.72
2022-10-06T12:20:23.224Z,99889.03
2022-10-06T12:22:59.384Z,99890.06
2022-10-06T12:25:41.989Z,99882.59
2022-10-06T12:28:49.695Z,99881.53
2022-10-06T12:31:22.977Z,99875.97
2022-10-06T12:33:50.463Z,99870.19
2022-10-06T12:36:26.834Z,99874.69
2022-10-06T12:39:05.897Z,99874.59
2022-10-06T12:41:58.779Z,99870.91
2022-10-06T12:44:37.620Z,99868.19
2022-10-06T12:47:11.998Z,99865.69
2022-10-06T12:49:53.706Z,99868.03
2022-10-06T12:52:40.096Z,99864.41
2022-10-06T12:55:06.645Z,99859.97
2022-10-06T12:57:46.483Z,99867.06
2022-10-06T13:00:35.818Z,99869.38
2022-10-06T13:03:06.055Z,99868.13
2022-10-06T13:05:35.431Z,99861.50
2022-10-06T13:08:04.572Z,99871.13
2022-10-06T13:10:35.016Z,99868.16
2022-10-06T13:13:01.783Z,99859.16
2022-10-06T13:15:41.442Z,99862.53
2022-10-06T13:18:07.772Z,99860.84
2022-10-06T13:21:00.865Z,99861.97
2022-10-06T13:23:30.596Z,99853.94
2022-10-06T13:25:59.422Z,99860.41
2022-10-06T13:28:43.827Z,99846.91
2022-10-06T13:31:31.270Z,99851.03
2022-10-06T13:34:12.693Z,99847.78
2022-10-06T13:36:41.863Z,99846.50
2022-10-06T13:39:34.470Z,99851.44
2022-10-06T13:42:17.609Z,99842.09
2022-10-06T13:44:56.243Z,99837.28
2022-10-06T13:47:25.250Z,99841.50
2022-10-06T13:50:05.873Z,99841.09
2022-10-06T13:52:38.855Z,99842.03
2022-10-06T13:55:13.864Z,99847.88
2022-10-06T13:57:44.786Z,99838.00
2022-10-06T14:00:14.279Z,99840.81
2022-10-06T14:02:46.620Z,99842.22
2022-10-06T14:05:29.274Z,99833.81
2022-10-06T14:08:01.491Z,99836.09
2022-10-06T14:10:50.433Z,99835.75
2022-10-06T14:13:39.821Z,99826.97
2022-10-06T14:16:08.925Z,99839.16
2022-10-06T14:18:53.367Z,99836.22
2022-10-06T14:21:36.428Z,99835.59
2022-10-06T14:24:07.511Z,99828.56
2022-10-06T14:26:37.274Z,99843.19
2022-10-06T14:29:03.923Z,99839.34
2022-10-06T14:31:33.858Z,99834.72
2022-10-06T14:34:01.321Z,99840.19
2022-10-06T14:36:30.670Z,99835.84
2022-10-06T14:38:58.519Z,99829.81
2022-10-06T14:41:29.785Z,99835.06
2022-10-06T14:43:58.465Z,99833.75
2022-10-06T14:46:25.494Z,99822.75
2022-10-06T14:48:52.273Z,99820.81
2022-10-06T14:51:19.434Z,99819.97
2022-10-06T14:53:56.820Z,99822.28
2022-10-06T14:56:26.346Z,99812.75
2022-10-06T14:58:53.226Z,99821.38
2022-10-06T15:01:23.086Z,99813.66
2022-10-06T15:03:53.898Z,99817.88
2022-10-06T15:06:39.402Z,99826.16
2022-10-06T15:09:06.572Z,99814.22
2022-10-06T15:11:33.087Z,99811.66
2022-10-06T15:13:59.797Z,99810.91
2022-10-06T15:16:29.767Z,99811.28
2022-10-06T15:18:58.332Z,99812.66
2022-10-06T15:21:24.790Z,99808.16
2022-10-06T15:23:59.940Z,99804.63
2022-10-06T15:26:45.226Z,99801.25
2022-10-06T15:29:12.908Z,99804.09
2022-10-06T15:31:44.409Z,99804.44
2022-10-06T15:34:13.379Z,99814.06
2022-10-06T15:36:41.837Z,99802.28
2022-10-06T15:39:10.904Z,99805.78
2022-10-06T15:41:39.408Z,99805.97
2022-10-06T15:44:06.584Z,99809.16
2022-10-06T15:46:35.903Z,99806.31
2022-10-06T15:49:05.533Z,99804.06
2022-10-06T15:51:36.459Z,99800.34
2022-10-06T15:54:03.161Z,99802.72
2022-10-06T15:56:31.730Z,99793.78
2022-10-06T15:58:59.150Z,99794.44
2022-10-06T16:01:35.651Z,99801.28
2022-10-06T16:04:12.007Z,99799.91
2022-10-06T16:06:55.094Z,99798.38
2022-10-06T16:09:27.028Z,99798.59
2022-10-06T16:11:54.575Z,99801.88
2022-10-06T16:14:21.294Z,99802.16
2022-10-06T16:16:48.583Z,99809.06
2022-10-06T16:19:16.229Z,99807.94
2022-10-06T16:21:43.325Z,99809.94
2022-10-06T16:24:10.168Z,99804.03
2022-10-06T16:26:36.620Z,99806.63
2022-10-06T16:29:03.811Z,99806.34
2022-10-06T16:31:30.662Z,99801.66
2022-10-06T16:33:57.701Z,99801.41
2022-10-06T16:36:24.240Z,99807.38
2022-10-06T16:38:52.814Z,99812.50
2022-10-06T16:41:19.860Z,99807.47
2022-10-06T16:43:48.101Z,99813.44
2022-10-06T16:46:26.449Z,99814.41
2022-10-06T16:48:55.236Z,99817.22
2022-10-06T16:51:29.994Z,99814.81
2022-10-06T16:53:58.747Z,99819.16
2022-10-06T16:56:40.032Z,99826.13
2022-10-06T16:59:17.817Z,99827.19
2022-10-06T17:01:44.781Z,99819.97
2022-10-06T17:04:12.776Z,99828.56
2022-10-06T17:06:40.340Z,99826.78
2022-10-06T17:09:08.262Z,99836.69
2022-10-06T17:11:35.879Z,99834.66
2022-10-06T17:14:03.412Z,99839.78
2022-10-06T17:16:33.106Z,99830.84
2022-10-06T17:19:00.267Z,99829.56
2022-10-06T17:21:44.864Z,99834.94
2022-10-06T17:24:13.092Z,99833.19
2022-10-06T17:26:41.692Z,99835.16
2022-10-06T17:29:13.976Z,99835.03
2022-10-06T17:31:43.001Z,99835.31
2022-10-06T17:34:19.590Z,99831.16
2022-10-06T17:36:49.323Z,99842.09
2022-10-06T17:39:18.545Z,99847.19
2022-10-06T17:41:46.686Z,99852.25
2022-10-06T17:44:33.342Z,99844.44
2022-10-06T17:47:00.405Z,99845.75
2022-10-06T17:49:30.265Z,99845.97
2022-10-06T17:51:56.760Z,99850.16
2022-10-06T17:54:25.302Z,99849.69
2022-10-06T17:56:54.734Z,99857.63
2022-10-06T17:59:24.597Z,99853.44
2022-10-06T18:01:53.946Z,99854.34
2022-10-06T18:04:20.474Z,99857.13
2022-10-06T18:06:47.373Z,99846.94
2022-10-06T18:09:14.858Z,99860.75
2022-10-06T18:11:43.670Z,99865.66
2022-10-06T18:14:18.455Z,99865.25
2022-10-06T18:16:46.071Z,99868.97
2022-10-06T18:19:16.039Z,99872.00
2022-10-06T18:21:43.946Z,99868.47
2022-10-06T18:24:16.152Z,99864.91
2022-10-06T18:26:44.153Z,99867.13
2022-10-06T18:29:11.426Z,99861.81
2022-10-06T18:31:38.771Z,99853.38
2022-10-06T18:36:53.004Z,99863.63
2022-10-06T18:39:19.559Z,99859.28
2022-10-06T18:41:47.568Z,99853.72
2022-10-06T18:44:13.971Z,99854.25
2022-10-06T18:46:58.947Z,99853.63
2022-10-06T18:49:25.434Z,99852.59
2022-10-06T18:51:58.497Z,99853.72
2022-10-06T18:54:27.375Z,99851.91
2022-10-06T18:56:54.835Z,99840.94
2022-10-06T18:59:27.631Z,99849.66
2022-10-06T19:02:04.832Z,99853.81
2022-10-06T19:04:35.304Z,99853.91
2022-10-06T19:07:02.452Z,99856.41
2022-10-06T19:09:28.792Z,99857.78
2022-10-06T19:11:57.775Z,99851.63
2022-10-06T19:14:32.853Z,99863.91
2022-10-06T19:17:13.763Z,99865.72
2022-10-06T19:19:51.240Z,99865.91
2022-10-06T19:22:21.577Z,99863.66
2022-10-06T19:24:48.485Z,99868.53
2022-10-06T19:27:20.515Z,99875.28
2022-10-06T19:29:56.297Z,99864.25
2022-10-06T19:32:29.067Z,99865.19
2022-10-06T19:34:58.528Z,99867.09
2022-10-06T19:37:27.156Z,99865.03
2022-10-06T19:39:53.877Z,99866.09
2022-10-06T19:42:41.654Z,99877.66
2022-10-06T19:45:09.711Z,99868.56
2022-10-06T19:47:36.157Z,99877.63
2022-10-06T19:50:08.717Z,99878.03
2022-10-06T19:52:38.088Z,99868.28
2022-10-06T19:55:05.039Z,99867.81
2022-10-06T19:57:32.537Z,99877.00
2022-10-06T19:59:58.931Z,99874.44
2022-10-06T20:02:25.300Z,99875.22
2022-10-06T20:04:51.715Z,99867.81
2022-10-06T20:07:21.573Z,99874.34
2022-10-06T20:09:48.077Z,99874.72
2022-10-06T20:12:15.060Z,99875.69
2022-10-06T20:14:41.606Z,99876.91
2022-10-06T20:17:07.996Z,99880.19
2022-10-06T20:19:35.736Z,99864.03
2022-10-06T20:22:03.055Z,99872.13
2022-10-06T20:24:31.852Z,99876.47
2022-10-06T20:26:58.258Z,99879.22
2022-10-06T20:29:26.278Z,99880.28
2022-10-06T20:31:54.909Z,99884.41
2022-10-06T20:34:31.515Z,99871.44
2022-10-06T20:37:02.801Z,99870.53
2022-10-06T20:39:49.786Z,99878.34
2022-10-06T20:42:16.910Z,99876.94
2022-10-06T20:44:43.911Z,99875.56
2022-10-06T20:47:12.177Z,99873.78
2022-10-06T20:49:39.039Z,99883.81
2022-10-06T20:52:05.894Z,99870.19
2022-10-06T20:54:35.475Z,99866.69
2022-10-06T20:57:06.421Z,99864.41
2022-10-06T20:59:35.300Z,99867.47
2022-10-06T21:02:02.229Z,99863.47
2022-10-06T21:04:29.330Z,99861.47
2022-10-06T21:06:55.937Z,99862.75
2022-10-06T21:09:24.129Z,99860.53
2022-10-06T21:11:50.615Z,99854.22
2022-10-06T21:14:17.628Z,99853.53
2022-10-06T21:16:45.893Z,99858.06
2022-10-06T21:19:14.877Z,99856.38
2022-10-06T21:21:42.754Z,99859.19
2022-10-06T21:24:09.773Z,99857.84
2022-10-06T21:26:38.561Z,99857.06
2022-10-06T21:29:05.639Z,99855.44
2022-10-06T21:31:33.095Z,99855.34
2022-10-06T21:34:01.237Z,99855.28
2022-10-06T21:36:31.216Z,99856.91
2022-10-06T21:38:59.157Z,99849.38
2022-10-06T21:41:35.947Z,99847.78
2022-10-06T21:44:02.396Z,99846.53
2022-10-06T21:46:36.906Z,99836.28
2022-10-06T21:49:05.707Z,99832.00
2022-10-06T21:51:33.179Z,99839.41
2022-10-06T21:54:00.958Z,99826.41
2022-10-06T21:56:29.568Z,99830.78
2022-10-06T21:58:57.027Z,99838.38
2022-10-06T22:01:26.989Z,99839.16
2022-10-06T22:03:54.180Z,99827.72
2022-10-06T22:06:21.948Z,99818.94
2022-10-06T22:08:49.136Z,99821.00
2022-10-06T22:11:21.308Z,99821.78
2022-10-06T22:13:50.291Z,99823.16
2022-10-06T22:16:22.582Z,99818.00
2022-10-06T22:18:49.481Z,99817.75
2022-10-06T22:21:20.590Z,99821.31
2022-10-06T22:23:52.865Z,99818.91
2022-10-06T22:26:19.328Z,99816.81
2022-10-06T22:28:47.941Z,99819.53
2022-10-06T22:31:16.282Z,99812.28
2022-10-06T22:33:44.740Z,99823.25
2022-10-06T22:36:13.464Z,99823.50
2022-10-06T22:38:40.301Z,99816.41
2022-10-06T22:41:10.153Z,99816.28
2022-10-06T22:43:37.001Z,99814.09
2022-10-06T22:46:05.394Z,99814.69
2022-10-06T22:48:31.978Z,99805.50
2022-10-06T22:50:58.616Z,99813.34
2022-10-06T22:53:28.056Z,99808.81
2022-10-06T22:55:55.709Z,99807.03
2022-10-06T22:58:22.258Z,99803.09
2022-10-06T23:00:48.747Z,99799.84
2022-10-06T23:03:16.574Z,99794.56
2022-10-06T23:05:43.005Z,99798.84
2022-10-06T23:08:09.358Z,99796.38
2022-10-06T23:10:36.469Z,99789.72
2022-10-06T23:13:03.377Z,99786.97
2022-10-06T23:15:29.923Z,99790.13
2022-10-06T23:17:56.315Z,99785.84
2022-10-06T23:20:22.676Z,99785.00
2022-10-06T23:22:49.078Z,99785.47
2022-10-06T23:25:17.961Z,99776.34
2022-10-06T23:27:44.609Z,99771.81
2022-10-06T23:30:11.555Z,99770.19
2022-10-06T23:32:40.528Z,99775.47
2022-10-06T23:35:11.199Z,99774.72
2022-10-06T23:37:38.139Z,99764.16
2022-10-06T23:40:05.993Z,99769.59
2022-10-06T23:42:33.126Z,99761.31
2022-10-06T23:44:59.476Z,99752.56
2022-10-06T23:47:25.899Z,99763.09
2022-10-06T23:49:52.362Z,99754.47
2022-10-06T23:52:18.688Z,99758.50
2022-10-06T23:54:45.039Z,99763.16
2022-10-06T23:57:11.511Z,99763.47
2022-10-06T23:59:37.868Z,99750.22
